createdAt,value
2023-03-22T00:01:17.802Z,10.63
2023-03-22T00:03:45.710Z,10.60
2023-03-22T00:06:13.590Z,10.61
2023-03-22T00:08:41.387Z,10.62
2023-03-22T00:11:09.758Z,10.63
2023-03-22T00:13:39.108Z,10.63
2023-03-22T00:16:09.935Z,10.59
2023-03-22T00:18:37.870Z,10.60
2023-03-22T00:21:05.957Z,10.53
2023-03-22T00:23:33.908Z,10.53
2023-03-22T00:26:01.515Z,10.52
2023-03-22T00:28:29.097Z,10.47
2023-03-22T00:31:00.857Z,10.50
2023-03-22T00:33:30.363Z,10.45
2023-03-22T00:35:59.956Z,10.48
2023-03-22T00:38:42.137Z,10.51
2023-03-22T00:41:13.332Z,10.53
2023-03-22T00:43:41.810Z,10.52
2023-03-22T00:46:12.365Z,10.52
2023-03-22T00:48:40.475Z,10.53
2023-03-22T00:51:09.418Z,10.48
2023-03-22T00:53:37.217Z,10.44
2023-03-22T00:56:05.780Z,10.44
2023-03-22T00:58:33.802Z,10.41
2023-03-22T01:01:01.642Z,10.39
2023-03-22T01:03:30.738Z,10.38
2023-03-22T01:05:58.666Z,10.37
2023-03-22T01:08:33.565Z,10.38
2023-03-22T01:11:01.875Z,10.32
2023-03-22T01:13:29.770Z,10.34
2023-03-22T01:15:57.546Z,10.33
2023-03-22T01:18:25.177Z,10.31
2023-03-22T01:20:54.213Z,10.31
2023-03-22T01:23:21.795Z,10.28
2023-03-22T01:25:49.461Z,10.27
2023-03-22T01:28:17.123Z,10.34
2023-03-22T01:30:44.743Z,10.23
2023-03-22T01:33:12.408Z,10.27
2023-03-22T01:35:40.582Z,10.30
2023-03-22T01:38:09.751Z,10.33
2023-03-22T01:40:37.815Z,10.31
2023-03-22T01:43:11.537Z,10.31
2023-03-22T01:45:45.834Z,10.32
2023-03-22T01:48:19.332Z,10.31
2023-03-22T01:50:56.076Z,10.29
2023-03-22T01:53:27.270Z,10.29
2023-03-22T01:55:56.408Z,10.27
2023-03-22T01:58:24.774Z,10.28
2023-03-22T02:00:53.677Z,10.24
2023-03-22T02:03:31.093Z,10.23
2023-03-22T02:05:58.856Z,10.23
2023-03-22T02:08:27.824Z,10.25
2023-03-22T02:10:55.693Z,10.24
2023-03-22T02:13:39.344Z,10.26
2023-03-22T02:16:21.332Z,10.25
2023-03-22T02:19:05.959Z,10.27
2023-03-22T02:21:49.587Z,10.26
2023-03-22T02:24:49.459Z,10.25
2023-03-22T02:27:28.514Z,10.18
2023-03-22T02:30:14.193Z,10.21
2023-03-22T02:33:03.342Z,10.17
2023-03-22T02:35:43.920Z,10.17
2023-03-22T02:38:36.654Z,10.16
2023-03-22T02:41:14.153Z,10.21
2023-03-22T02:43:49.407Z,10.21
2023-03-22T02:46:23.089Z,10.21
2023-03-22T02:49:01.190Z,10.21
2023-03-22T02:51:35.545Z,10.25
2023-03-22T02:54:08.494Z,10.26
2023-03-22T02:56:41.765Z,10.27
2023-03-22T02:59:13.685Z,10.29
2023-03-22T03:01:44.949Z,10.29
2023-03-22T03:04:18.486Z,10.28
2023-03-22T03:06:49.429Z,10.33
2023-03-22T03:09:19.958Z,10.34
2023-03-22T03:11:51.239Z,10.33
2023-03-22T03:14:24.563Z,10.32
2023-03-22T03:17:07.375Z,10.31
2023-03-22T03:19:41.960Z,10.34
2023-03-22T03:22:27.326Z,10.36
2023-03-22T03:25:02.643Z,10.39
2023-03-22T03:27:38.512Z,10.41
2023-03-22T03:30:12.793Z,10.40
2023-03-22T03:32:46.407Z,10.37
2023-03-22T03:35:23.167Z,10.37
2023-03-22T03:37:54.863Z,10.36
2023-03-22T03:40:27.587Z,10.40
2023-03-22T03:42:58.011Z,10.41
2023-03-22T03:45:26.067Z,10.42
2023-03-22T03:47:58.932Z,10.43
2023-03-22T03:50:28.012Z,10.45
2023-03-22T03:52:56.854Z,10.47
2023-03-22T03:55:27.538Z,10.45
2023-03-22T03:57:56.457Z,10.43
2023-03-22T04:00:24.152Z,10.44
2023-03-22T04:02:51.835Z,10.47
2023-03-22T04:05:19.759Z,10.45
2023-03-22T04:07:47.545Z,10.45
2023-03-22T04:10:15.144Z,10.47
2023-03-22T04:12:42.946Z,10.43
2023-03-22T04:15:13.130Z,10.47
2023-03-22T04:17:41.587Z,10.49
2023-03-22T04:20:12.922Z,10.52
2023-03-22T04:22:41.792Z,10.54
2023-03-22T04:25:12.036Z,10.55
2023-03-22T04:27:40.981Z,10.53
2023-03-22T04:30:11.235Z,10.51
2023-03-22T04:32:40.604Z,10.47
2023-03-22T04:35:08.802Z,10.44
2023-03-22T04:37:36.442Z,10.45
2023-03-22T04:40:06.635Z,10.49
2023-03-22T04:42:34.824Z,10.50
2023-03-22T04:45:03.993Z,10.50
2023-03-22T04:47:31.756Z,10.52
2023-03-22T04:50:00.899Z,10.54
2023-03-22T04:52:28.685Z,10.61
2023-03-22T04:54:56.542Z,10.67
2023-03-22T04:57:24.647Z,10.69
2023-03-22T04:59:52.376Z,10.71
2023-03-22T05:02:20.265Z,10.67
2023-03-22T05:04:48.387Z,10.64
2023-03-22T05:07:17.462Z,10.62
2023-03-22T05:09:45.256Z,10.59
2023-03-22T05:12:13.232Z,10.59
2023-03-22T05:14:41.082Z,10.54
2023-03-22T05:17:09.053Z,10.54
2023-03-22T05:19:37.157Z,10.54
2023-03-22T05:22:05.111Z,10.56
2023-03-22T05:24:34.052Z,10.54
2023-03-22T05:27:03.613Z,10.54
2023-03-22T05:29:36.989Z,10.55
2023-03-22T05:32:05.527Z,10.54
2023-03-22T05:34:36.286Z,10.54
2023-03-22T05:37:04.383Z,10.54
2023-03-22T05:39:33.737Z,10.50
2023-03-22T05:42:01.414Z,10.53
2023-03-22T05:44:29.098Z,10.52
2023-03-22T05:46:57.016Z,10.48
2023-03-22T05:49:26.700Z,10.43
2023-03-22T05:51:55.194Z,10.37
2023-03-22T05:54:22.901Z,10.35
2023-03-22T05:56:54.031Z,10.26
2023-03-22T05:59:23.088Z,10.32
2023-03-22T06:01:51.166Z,10.33
2023-03-22T06:04:20.944Z,10.32
2023-03-22T06:06:48.781Z,10.29
2023-03-22T06:09:17.985Z,10.30
2023-03-22T06:11:45.978Z,10.31
2023-03-22T06:14:14.962Z,10.34
2023-03-22T06:16:42.767Z,10.36
2023-03-22T06:19:10.590Z,10.35
2023-03-22T06:21:38.247Z,10.40
2023-03-22T06:24:06.515Z,10.43
2023-03-22T06:26:34.201Z,10.44
2023-03-22T06:29:03.501Z,10.39
2023-03-22T06:31:32.516Z,10.44
2023-03-22T06:34:00.297Z,10.49
2023-03-22T06:36:30.312Z,10.51
2023-03-22T06:39:00.895Z,10.54
2023-03-22T06:41:28.649Z,10.58
2023-03-22T06:43:56.298Z,10.66
2023-03-22T06:46:24.126Z,10.71
2023-03-22T06:48:56.653Z,10.73
2023-03-22T06:51:24.675Z,10.73
2023-03-22T06:53:54.758Z,10.80
2023-03-22T06:56:22.500Z,10.72
2023-03-22T06:58:51.838Z,10.73
2023-03-22T07:01:20.092Z,10.76
2023-03-22T07:03:49.500Z,10.70
2023-03-22T07:06:18.862Z,10.67
2023-03-22T07:08:46.616Z,10.66
2023-03-22T07:11:16.563Z,10.63
2023-03-22T07:13:45.112Z,10.61
2023-03-22T07:16:13.515Z,10.60
2023-03-22T07:18:41.526Z,10.66
2023-03-22T07:21:09.509Z,10.67
2023-03-22T07:23:38.588Z,10.70
2023-03-22T07:26:07.000Z,10.84
2023-03-22T07:28:35.217Z,10.86
2023-03-22T07:31:06.620Z,10.98
2023-03-22T07:33:34.557Z,11.00
2023-03-22T07:36:02.597Z,11.10
2023-03-22T07:38:31.812Z,11.25
2023-03-22T07:41:01.038Z,11.30
2023-03-22T07:43:28.888Z,11.32
2023-03-22T07:45:56.643Z,11.34
2023-03-22T07:48:25.036Z,11.45
2023-03-22T07:50:56.725Z,11.49
2023-03-22T07:53:24.823Z,11.52
2023-03-22T07:55:52.548Z,11.63
2023-03-22T07:58:24.060Z,11.84
2023-03-22T08:00:51.626Z,12.05
2023-03-22T08:03:19.407Z,12.21
2023-03-22T08:05:48.171Z,12.27
2023-03-22T08:08:16.059Z,12.32
2023-03-22T08:10:44.143Z,12.24
2023-03-22T08:13:12.804Z,12.23
2023-03-22T08:15:43.297Z,12.04
2023-03-22T08:18:13.361Z,12.08
2023-03-22T08:20:42.095Z,12.04
2023-03-22T08:23:14.429Z,12.10
2023-03-22T08:25:42.342Z,12.12
2023-03-22T08:28:10.513Z,12.06
2023-03-22T08:30:38.626Z,12.10
2023-03-22T08:33:07.753Z,12.02
2023-03-22T08:35:35.700Z,12.03
2023-03-22T08:38:03.464Z,12.08
2023-03-22T08:40:31.130Z,12.00
2023-03-22T08:42:59.116Z,12.10
2023-03-22T08:45:26.982Z,11.99
2023-03-22T08:47:54.599Z,11.95
2023-03-22T08:50:24.277Z,12.06
2023-03-22T08:52:53.588Z,12.10
2023-03-22T08:55:21.252Z,12.05
2023-03-22T08:57:50.438Z,12.12
2023-03-22T09:00:19.528Z,12.12
2023-03-22T09:02:47.873Z,12.20
2023-03-22T09:05:15.677Z,12.24
2023-03-22T09:07:44.837Z,12.34
2023-03-22T09:10:13.079Z,12.47
2023-03-22T09:12:40.871Z,12.52
2023-03-22T09:15:09.436Z,12.64
2023-03-22T09:17:37.090Z,12.55
2023-03-22T09:20:12.730Z,12.51
2023-03-22T09:22:41.151Z,12.52
2023-03-22T09:25:12.811Z,12.57
2023-03-22T09:27:42.392Z,12.51
2023-03-22T09:30:11.846Z,12.55
2023-03-22T09:32:42.225Z,12.58
2023-03-22T09:35:10.587Z,12.72
2023-03-22T09:37:38.524Z,12.79
2023-03-22T09:40:07.765Z,12.83
2023-03-22T09:42:40.782Z,12.78
2023-03-22T09:45:14.727Z,12.79
2023-03-22T09:47:46.762Z,12.88
2023-03-22T09:50:19.601Z,13.02
2023-03-22T09:52:49.977Z,13.15
2023-03-22T09:55:23.081Z,13.15
2023-03-22T09:58:02.144Z,13.21
2023-03-22T10:00:38.937Z,13.16
2023-03-22T10:03:18.078Z,13.16
2023-03-22T10:05:50.919Z,13.25
2023-03-22T10:08:28.877Z,13.26
2023-03-22T10:10:58.541Z,13.19
2023-03-22T10:13:36.926Z,13.36
2023-03-22T10:16:08.992Z,13.55
2023-03-22T10:18:39.647Z,13.45
2023-03-22T10:21:09.641Z,13.60
2023-03-22T10:23:44.994Z,13.72
2023-03-22T10:26:21.104Z,13.76
2023-03-22T10:28:59.350Z,13.86
2023-03-22T10:31:28.133Z,13.92
2023-03-22T10:33:59.943Z,13.78
2023-03-22T10:36:33.246Z,13.77
2023-03-22T10:39:05.692Z,13.73
2023-03-22T10:41:34.985Z,13.75
2023-03-22T10:44:06.458Z,13.82
2023-03-22T10:46:39.175Z,13.83
2023-03-22T10:49:08.641Z,13.93
2023-03-22T10:51:41.603Z,13.98
2023-03-22T10:54:14.293Z,13.99
2023-03-22T10:56:42.358Z,13.96
2023-03-22T10:59:48.378Z,13.92
2023-03-22T11:02:21.139Z,13.93
2023-03-22T11:04:50.722Z,13.96
2023-03-22T11:07:31.240Z,14.04
2023-03-22T11:10:12.209Z,14.13
2023-03-22T11:12:43.144Z,14.26
2023-03-22T11:15:23.931Z,14.26
2023-03-22T11:17:51.992Z,14.23
2023-03-22T11:20:20.854Z,14.30
2023-03-22T11:22:49.759Z,14.32
2023-03-22T11:25:21.619Z,14.26
2023-03-22T11:27:54.391Z,14.29
2023-03-22T11:30:26.379Z,14.27
2023-03-22T11:33:17.821Z,14.31
2023-03-22T11:35:48.094Z,14.27
2023-03-22T11:38:31.543Z,14.21
2023-03-22T11:41:05.536Z,14.25
2023-03-22T11:43:37.398Z,14.38
2023-03-22T11:46:09.465Z,14.40
2023-03-22T11:48:38.189Z,14.43
2023-03-22T11:51:10.087Z,14.46
2023-03-22T11:53:40.418Z,14.48
2023-03-22T11:56:11.870Z,14.50
2023-03-22T11:58:59.880Z,14.65
2023-03-22T12:01:43.785Z,14.74
2023-03-22T12:04:17.369Z,14.81
2023-03-22T12:06:45.316Z,14.93
2023-03-22T12:09:23.422Z,15.10
2023-03-22T12:11:54.241Z,15.06
2023-03-22T12:14:24.406Z,15.09
2023-03-22T12:16:59.175Z,15.10
2023-03-22T12:19:42.683Z,15.10
2023-03-22T12:22:13.922Z,15.09
2023-03-22T12:24:43.033Z,15.01
2023-03-22T12:27:18.524Z,15.00
2023-03-22T12:29:50.832Z,14.94
2023-03-22T12:32:25.255Z,15.00
2023-03-22T12:35:05.403Z,15.06
2023-03-22T12:37:44.294Z,15.02
2023-03-22T12:40:24.279Z,15.00
2023-03-22T12:43:01.755Z,14.95
2023-03-22T12:45:33.087Z,14.86
2023-03-22T12:48:07.368Z,14.82
2023-03-22T12:50:38.723Z,14.82
2023-03-22T12:53:08.606Z,14.78
2023-03-22T12:55:40.978Z,14.85
2023-03-22T12:58:10.882Z,14.81
2023-03-22T13:00:45.818Z,14.74
2023-03-22T13:03:26.862Z,14.79
2023-03-22T13:06:07.671Z,14.80
2023-03-22T13:09:17.027Z,14.77
2023-03-22T13:11:46.560Z,14.81
2023-03-22T13:14:47.012Z,14.84
2023-03-22T13:17:16.918Z,14.89
2023-03-22T13:19:54.746Z,14.88
2023-03-22T13:22:28.223Z,14.90
2023-03-22T13:25:10.910Z,14.79
2023-03-22T13:27:41.754Z,14.74
2023-03-22T13:30:17.779Z,14.76
2023-03-22T13:32:54.604Z,14.77
2023-03-22T13:35:28.288Z,14.73
2023-03-22T13:38:03.064Z,14.71
2023-03-22T13:40:37.548Z,14.65
2023-03-22T13:43:25.298Z,14.62
2023-03-22T13:46:14.916Z,14.68
2023-03-22T13:48:52.263Z,14.65
2023-03-22T13:51:30.097Z,14.65
2023-03-22T13:54:03.457Z,14.72
2023-03-22T13:56:52.212Z,14.68
2023-03-22T13:59:25.265Z,14.61
2023-03-22T14:01:55.693Z,14.69
2023-03-22T14:04:29.920Z,14.66
2023-03-22T14:07:01.614Z,14.67
2023-03-22T14:09:36.652Z,14.65
2023-03-22T14:12:10.771Z,14.67
2023-03-22T14:14:43.873Z,14.59
2023-03-22T14:17:22.800Z,14.55
2023-03-22T14:19:52.628Z,14.55
